createdAt,value
2023-03-03T00:00:06.039Z,35.57
2023-03-03T00:02:32.863Z,38.13
2023-03-03T00:04:59.769Z,39.73
2023-03-03T00:07:26.466Z,35.50
2023-03-03T00:09:53.317Z,38.70
2023-03-03T00:12:27.505Z,41.53
2023-03-03T00:14:54.964Z,34.90
2023-03-03T00:17:27.821Z,35.93
2023-03-03T00:19:55.350Z,33.17
2023-03-03T00:22:36.236Z,36.73
2023-03-03T00:25:31.931Z,37.07
2023-03-03T00:28:17.748Z,38.70
2023-03-03T00:30:44.483Z,36.57
2023-03-03T00:33:33.122Z,34.03
2023-03-03T00:36:15.415Z,33.67
2023-03-03T00:38:42.947Z,37.07
2023-03-03T00:41:39.640Z,35.07
2023-03-03T00:44:25.762Z,32.23
2023-03-03T00:46:54.182Z,31.77
2023-03-03T00:49:26.911Z,31.27
2023-03-03T00:51:54.619Z,33.83
2023-03-03T00:54:21.464Z,33.43
2023-03-03T00:56:48.216Z,33.47
2023-03-03T00:59:14.935Z,31.83
2023-03-03T01:01:41.736Z,30.97
2023-03-03T01:04:08.480Z,38.27
2023-03-03T01:06:35.308Z,34.00
2023-03-03T01:09:02.013Z,37.00
2023-03-03T01:11:29.255Z,40.47
2023-03-03T01:13:56.828Z,34.57
2023-03-03T01:16:23.650Z,31.97
2023-03-03T01:18:50.335Z,31.90
2023-03-03T01:21:18.030Z,34.90
2023-03-03T01:23:44.812Z,34.03
2023-03-03T01:26:11.634Z,37.97
2023-03-03T01:28:38.364Z,33.00
2023-03-03T01:31:06.286Z,33.57
2023-03-03T01:33:35.345Z,35.20
2023-03-03T01:36:03.084Z,33.07
2023-03-03T01:38:30.531Z,32.70
2023-03-03T01:40:59.320Z,37.03
2023-03-03T01:43:31.939Z,32.77
2023-03-03T01:45:58.565Z,30.53
2023-03-03T01:48:42.525Z,35.07
2023-03-03T01:51:26.243Z,31.70
2023-03-03T01:54:06.726Z,35.00
2023-03-03T01:56:33.692Z,30.40
2023-03-03T01:59:13.465Z,32.90
2023-03-03T02:01:41.473Z,32.27
2023-03-03T02:04:09.539Z,39.00
2023-03-03T02:06:40.176Z,37.00
2023-03-03T02:09:18.724Z,34.10
2023-03-03T02:11:47.791Z,35.43
2023-03-03T02:14:19.039Z,37.07
2023-03-03T02:16:45.991Z,34.17
2023-03-03T02:19:44.117Z,37.73
2023-03-03T02:22:13.461Z,33.27
2023-03-03T02:24:49.008Z,32.17
2023-03-03T02:27:15.838Z,34.23
2023-03-03T02:29:42.514Z,31.00
2023-03-03T02:32:09.302Z,31.10
2023-03-03T02:34:48.085Z,30.00
2023-03-03T02:37:14.801Z,37.50
2023-03-03T02:39:41.649Z,38.10
2023-03-03T02:42:18.138Z,39.30
2023-03-03T02:44:45.925Z,32.03
2023-03-03T02:47:12.618Z,33.43
2023-03-03T02:49:39.674Z,32.33
2023-03-03T02:52:11.601Z,33.83
2023-03-03T02:54:38.670Z,31.70
2023-03-03T02:57:06.167Z,32.77
2023-03-03T02:59:33.019Z,31.80
2023-03-03T03:02:00.139Z,36.60
2023-03-03T03:04:27.868Z,35.63
2023-03-03T03:06:55.473Z,34.63
2023-03-03T03:09:24.427Z,36.63
2023-03-03T03:11:51.316Z,34.03
2023-03-03T03:14:18.010Z,32.87
2023-03-03T03:16:44.919Z,34.17
2023-03-03T03:19:11.896Z,33.20
2023-03-03T03:21:38.759Z,35.40
2023-03-03T03:24:05.770Z,33.87
2023-03-03T03:26:32.472Z,37.40
2023-03-03T03:28:59.190Z,35.97
2023-03-03T03:31:25.964Z,32.37
2023-03-03T03:33:53.048Z,31.80
2023-03-03T03:36:19.812Z,34.60
2023-03-03T03:38:46.536Z,33.67
2023-03-03T03:41:13.893Z,29.37
2023-03-03T03:43:40.639Z,33.53
2023-03-03T03:46:08.142Z,31.57
2023-03-03T03:48:35.354Z,38.50
2023-03-03T03:51:02.737Z,41.17
2023-03-03T03:53:29.454Z,37.23
2023-03-03T03:55:56.485Z,40.27
2023-03-03T03:58:23.201Z,40.77
2023-03-03T04:00:50.200Z,40.83
2023-03-03T04:03:17.063Z,36.77
2023-03-03T04:05:44.321Z,36.90
2023-03-03T04:08:11.347Z,39.30
2023-03-03T04:10:38.857Z,44.07
2023-03-03T04:13:05.621Z,36.77
2023-03-03T04:15:32.423Z,38.67
2023-03-03T04:17:59.214Z,38.30
2023-03-03T04:20:25.942Z,36.63
2023-03-03T04:22:52.921Z,37.03
2023-03-03T04:25:19.863Z,31.10
2023-03-03T04:27:46.650Z,32.43
2023-03-03T04:30:15.185Z,33.83
2023-03-03T04:32:42.046Z,36.70
2023-03-03T04:35:09.592Z,37.60
2023-03-03T04:37:37.556Z,33.07
2023-03-03T04:40:08.521Z,32.93
2023-03-03T04:42:35.652Z,39.20
2023-03-03T04:45:02.899Z,35.33
2023-03-03T04:47:29.645Z,34.00
2023-03-03T04:49:56.452Z,37.57
2023-03-03T04:52:23.160Z,32.87
2023-03-03T04:54:49.877Z,44.83
2023-03-03T04:57:16.635Z,50.90
2023-03-03T04:59:43.418Z,50.03
2023-03-03T05:02:10.265Z,48.33
2023-03-03T05:04:37.024Z,43.83
2023-03-03T05:07:04.076Z,40.67
2023-03-03T05:09:30.989Z,39.03
2023-03-03T05:11:57.706Z,39.73
2023-03-03T05:14:24.452Z,39.20
2023-03-03T05:16:51.515Z,36.00
2023-03-03T05:19:18.275Z,38.50
2023-03-03T05:21:45.021Z,37.17
2023-03-03T05:24:14.334Z,35.80
2023-03-03T05:26:41.915Z,38.27
2023-03-03T05:29:09.736Z,38.53
2023-03-03T05:31:36.852Z,38.80
2023-03-03T05:34:03.697Z,34.13
2023-03-03T05:36:30.656Z,36.47
2023-03-03T05:38:57.392Z,37.80
2023-03-03T05:41:24.265Z,35.73
2023-03-03T05:43:51.282Z,33.43
2023-03-03T05:46:18.078Z,38.03
2023-03-03T05:48:45.361Z,38.37
2023-03-03T05:51:12.289Z,37.17
2023-03-03T05:53:39.456Z,40.93
2023-03-03T05:56:06.566Z,34.70
2023-03-03T05:58:33.396Z,35.87
2023-03-03T06:01:00.484Z,35.87
2023-03-03T06:03:27.471Z,36.63
2023-03-03T06:05:54.240Z,35.50
2023-03-03T06:08:20.972Z,36.30
2023-03-03T06:10:47.875Z,35.30
2023-03-03T06:13:14.652Z,33.80
2023-03-03T06:15:41.501Z,37.23
2023-03-03T06:18:08.453Z,40.30
2023-03-03T06:20:35.544Z,38.67
2023-03-03T06:23:02.512Z,40.47
2023-03-03T06:25:29.289Z,40.03
2023-03-03T06:27:56.155Z,42.63
2023-03-03T06:30:22.892Z,42.93
2023-03-03T06:32:49.600Z,44.93
2023-03-03T06:35:16.414Z,36.00
2023-03-03T06:37:43.177Z,40.07
2023-03-03T06:40:10.398Z,34.43
2023-03-03T06:42:37.146Z,34.97
2023-03-03T06:45:04.427Z,40.77
2023-03-03T06:47:31.706Z,46.20
2023-03-03T06:49:58.429Z,40.30
2023-03-03T06:52:27.258Z,39.37
2023-03-03T06:54:57.123Z,36.50
2023-03-03T06:57:28.989Z,36.10
2023-03-03T06:59:59.446Z,36.03
2023-03-03T07:02:26.287Z,34.13
2023-03-03T07:04:56.398Z,36.20
2023-03-03T07:07:25.880Z,37.87
2023-03-03T07:09:56.776Z,40.37
2023-03-03T07:12:32.357Z,33.37
2023-03-03T07:15:27.074Z,35.97
2023-03-03T07:18:00.141Z,36.90
2023-03-03T07:20:36.777Z,35.70
2023-03-03T07:23:28.409Z,35.97
2023-03-03T07:25:55.355Z,34.33
2023-03-03T07:28:28.712Z,35.07
2023-03-03T07:30:57.549Z,35.00
2023-03-03T07:33:31.723Z,37.43
2023-03-03T07:36:00.314Z,42.70
2023-03-03T07:38:42.348Z,45.53
2023-03-03T07:41:23.595Z,41.43
2023-03-03T07:43:55.872Z,35.10
2023-03-03T07:46:42.988Z,39.40
2023-03-03T07:49:16.534Z,38.63
2023-03-03T07:51:43.470Z,41.17
2023-03-03T07:54:30.443Z,41.73
2023-03-03T07:57:13.282Z,36.53
2023-03-03T07:59:55.890Z,39.07
2023-03-03T08:02:28.780Z,41.00
2023-03-03T08:04:55.805Z,37.43
2023-03-03T08:07:23.723Z,37.87
2023-03-03T08:09:56.982Z,35.57
2023-03-03T08:12:32.251Z,38.13
2023-03-03T08:15:22.853Z,38.93
2023-03-03T08:17:51.105Z,36.13
2023-03-03T08:20:48.114Z,37.43
2023-03-03T08:23:16.316Z,33.90
2023-03-03T08:25:44.085Z,31.07
2023-03-03T08:28:12.545Z,31.83
2023-03-03T08:30:39.476Z,33.03
2023-03-03T08:33:06.674Z,41.07
2023-03-03T08:35:33.473Z,33.67
2023-03-03T08:38:00.442Z,41.87
2023-03-03T08:40:27.249Z,36.60
2023-03-03T08:42:54.463Z,68.53
2023-03-03T08:45:21.314Z,36.77
2023-03-03T08:47:47.978Z,36.63
2023-03-03T08:50:15.384Z,43.73
2023-03-03T08:52:42.157Z,33.17
2023-03-03T08:55:09.194Z,37.13
2023-03-03T08:57:36.132Z,35.13
2023-03-03T09:00:03.109Z,36.23
2023-03-03T09:02:29.873Z,38.80
2023-03-03T09:04:56.599Z,41.00
2023-03-03T09:07:23.321Z,41.53
2023-03-03T09:09:50.171Z,39.50
2023-03-03T09:12:38.506Z,42.83
2023-03-03T09:15:20.900Z,41.17
2023-03-03T09:17:48.282Z,40.47
2023-03-03T09:20:35.627Z,37.63
2023-03-03T09:23:28.648Z,37.73
2023-03-03T09:25:55.460Z,45.63
2023-03-03T09:28:29.648Z,41.00
2023-03-03T09:31:01.659Z,37.03
2023-03-03T09:33:31.187Z,41.97
2023-03-03T09:36:01.074Z,38.73
2023-03-03T09:38:33.202Z,37.60
2023-03-03T09:40:59.919Z,37.60
2023-03-03T09:43:42.388Z,41.20
2023-03-03T09:46:33.740Z,42.83
2023-03-03T09:49:24.779Z,37.33
2023-03-03T09:52:21.901Z,36.10
2023-03-03T09:55:03.698Z,39.87
2023-03-03T09:57:55.788Z,38.43
2023-03-03T10:00:54.615Z,37.83
2023-03-03T10:03:57.866Z,39.30
2023-03-03T10:06:52.800Z,39.13
2023-03-03T10:09:34.572Z,37.30
2023-03-03T10:12:27.108Z,37.90
2023-03-03T10:15:11.890Z,39.33
2023-03-03T10:18:07.755Z,35.63
2023-03-03T10:20:54.832Z,35.07
2023-03-03T10:23:40.080Z,34.80
2023-03-03T10:26:45.581Z,35.30
2023-03-03T10:29:23.696Z,36.40
2023-03-03T10:32:29.092Z,34.03
2023-03-03T10:35:18.481Z,35.53
2023-03-03T10:38:02.407Z,32.20
2023-03-03T10:40:50.961Z,30.30
2023-03-03T10:43:31.129Z,30.97
2023-03-03T10:46:13.231Z,37.87
2023-03-03T10:48:55.732Z,33.83
2023-03-03T10:51:37.484Z,33.77
2023-03-03T10:54:18.993Z,28.60
2023-03-03T10:56:53.649Z,33.13
2023-03-03T10:59:36.580Z,35.77
2023-03-03T11:02:25.464Z,34.13
2023-03-03T11:05:04.111Z,35.23
2023-03-03T11:07:36.308Z,38.13
2023-03-03T11:10:30.223Z,34.03
2023-03-03T11:13:15.110Z,37.87
2023-03-03T11:16:17.185Z,42.10
2023-03-03T11:19:05.915Z,42.57
2023-03-03T11:21:47.649Z,40.80
2023-03-03T11:24:45.733Z,41.97
2023-03-03T11:27:56.819Z,45.33
2023-03-03T11:30:35.821Z,40.63
2023-03-03T11:33:46.515Z,42.83
2023-03-03T11:36:26.114Z,41.57
2023-03-03T11:39:11.378Z,42.07
2023-03-03T11:41:50.692Z,40.73
2023-03-03T11:44:32.218Z,39.17
2023-03-03T11:47:09.132Z,37.00
2023-03-03T11:49:57.672Z,38.23
2023-03-03T11:52:31.851Z,37.47
2023-03-03T11:55:15.340Z,32.80
2023-03-03T11:57:44.117Z,37.23
2023-03-03T12:00:30.732Z,34.07
2023-03-03T12:03:28.861Z,41.47
2023-03-03T12:06:04.841Z,38.17
2023-03-03T12:08:53.516Z,34.53
2023-03-03T12:11:37.869Z,41.03
2023-03-03T12:14:19.248Z,40.73
2023-03-03T12:16:59.913Z,39.07
2023-03-03T12:19:29.641Z,34.57
2023-03-03T12:22:34.210Z,38.87
2023-03-03T12:25:09.881Z,43.83
2023-03-03T12:27:43.480Z,39.67
2023-03-03T12:30:44.268Z,42.97
2023-03-03T12:33:35.596Z,40.60
2023-03-03T12:36:16.437Z,42.40
2023-03-03T12:39:10.353Z,38.80
2023-03-03T12:42:03.842Z,39.17
2023-03-03T12:45:07.481Z,34.43
2023-03-03T12:48:16.279Z,38.80
2023-03-03T12:51:01.907Z,36.63
2023-03-03T12:53:50.507Z,37.07
2023-03-03T12:56:41.671Z,36.60
2023-03-03T12:59:54.906Z,34.87
2023-03-03T13:02:52.055Z,38.03
2023-03-03T13:05:57.957Z,34.23
2023-03-03T13:08:33.015Z,31.33
2023-03-03T13:11:22.162Z,33.57
2023-03-03T13:13:53.562Z,31.87
2023-03-03T13:16:42.145Z,34.70
2023-03-03T13:19:36.880Z,31.60
2023-03-03T13:22:16.669Z,31.10
2023-03-03T13:25:10.224Z,28.23
2023-03-03T13:27:50.626Z,27.57
2023-03-03T13:30:26.108Z,38.83
2023-03-03T13:33:25.976Z,28.23
2023-03-03T13:36:01.077Z,26.47
2023-03-03T13:38:46.536Z,26.53
2023-03-03T13:41:32.665Z,27.50
2023-03-03T13:44:13.144Z,30.27
2023-03-03T13:46:56.734Z,26.97
2023-03-03T13:49:51.376Z,32.40
2023-03-03T13:52:25.008Z,23.50
2023-03-03T13:55:08.792Z,25.83
2023-03-03T13:58:28.062Z,24.30
2023-03-03T14:01:01.517Z,28.83
2023-03-03T14:03:54.041Z,26.83
2023-03-03T14:06:27.156Z,27.10
2023-03-03T14:08:59.934Z,24.37
2023-03-03T14:11:45.269Z,25.77
2023-03-03T14:14:21.154Z,26.77
2023-03-03T14:16:58.087Z,25.75
2023-03-03T14:19:42.244Z,27.60
2023-03-03T14:22:36.359Z,26.33
2023-03-03T14:25:08.105Z,23.88
2023-03-03T14:27:49.360Z,26.42
2023-03-03T14:30:25.006Z,26.77
2023-03-03T14:33:02.725Z,27.30
2023-03-03T14:35:33.607Z,27.70
2023-03-03T14:38:12.092Z,25.17
2023-03-03T14:40:42.929Z,24.45
2023-03-03T14:43:44.013Z,23.30
2023-03-03T14:46:34.630Z,23.92
2023-03-03T14:49:05.367Z,28.60
2023-03-03T14:51:47.515Z,22.48
2023-03-03T14:54:26.444Z,22.70
2023-03-03T14:57:00.916Z,23.55
2023-03-03T14:59:28.567Z,27.52
2023-03-03T15:02:29.721Z,24.55
2023-03-03T15:05:27.272Z,27.88
2023-03-03T15:07:57.280Z,22.63
2023-03-03T15:10:36.462Z,25.80
2023-03-03T15:13:10.388Z,25.42
2023-03-03T15:16:00.782Z,26.30
2023-03-03T15:18:29.540Z,26.07
2023-03-03T15:21:02.195Z,26.40
2023-03-03T15:23:50.209Z,27.92
2023-03-03T15:26:38.504Z,26.23
2023-03-03T15:29:21.384Z,26.13
2023-03-03T15:31:57.223Z,30.17
2023-03-03T15:34:40.345Z,23.55
2023-03-03T15:37:42.464Z,27.00
2023-03-03T15:40:24.654Z,26.65
2023-03-03T15:42:54.500Z,24.95
2023-03-03T15:45:37.634Z,26.30
2023-03-03T15:48:39.767Z,28.67
2023-03-03T15:51:50.681Z,28.77
2023-03-03T15:54:46.235Z,24.37
2023-03-03T15:57:34.049Z,29.27
2023-03-03T16:00:35.755Z,25.48
2023-03-03T16:03:35.164Z,25.85
2023-03-03T16:06:08.309Z,23.05
2023-03-03T16:08:54.606Z,25.88
2023-03-03T16:11:28.247Z,30.20
2023-03-03T16:14:44.152Z,26.87
2023-03-03T16:17:28.830Z,28.40
2023-03-03T16:20:23.081Z,24.53
2023-03-03T16:22:58.949Z,26.80
2023-03-03T16:25:55.206Z,27.42
2023-03-03T16:28:53.135Z,27.97
2023-03-03T16:31:37.956Z,28.07
2023-03-03T16:34:17.138Z,26.37
2023-03-03T16:36:49.679Z,27.23
2023-03-03T16:39:37.036Z,28.03
2023-03-03T16:42:25.478Z,28.83
2023-03-03T16:45:39.239Z,27.80
2023-03-03T16:48:25.980Z,34.17
2023-03-03T16:51:13.203Z,32.03
2023-03-03T16:53:53.408Z,28.30
2023-03-03T16:56:25.638Z,28.43
2023-03-03T16:58:52.311Z,30.27
2023-03-03T17:01:31.095Z,30.13
2023-03-03T17:04:24.459Z,54.23
2023-03-03T17:07:02.872Z,48.37
2023-03-03T17:09:33.495Z,34.53
2023-03-03T17:12:09.304Z,35.87
2023-03-03T17:14:57.968Z,33.13
2023-03-03T17:17:43.110Z,30.90
2023-03-03T17:20:24.944Z,33.03
2023-03-03T17:23:26.953Z,35.37
2023-03-03T17:26:27.140Z,33.57
2023-03-03T17:28:59.690Z,32.33
2023-03-03T17:31:29.416Z,39.10
2023-03-03T17:34:06.578Z,44.83
2023-03-03T17:36:43.189Z,35.03
2023-03-03T17:39:10.024Z,41.60
2023-03-03T17:41:51.767Z,43.10
2023-03-03T17:44:37.489Z,52.30
2023-03-03T17:47:20.527Z,53.60
2023-03-03T17:50:07.792Z,49.00
2023-03-03T17:52:47.805Z,50.80
2023-03-03T17:55:35.303Z,45.90
2023-03-03T17:58:20.871Z,48.00
2023-03-03T18:01:09.363Z,40.60
2023-03-03T18:03:51.710Z,40.17
2023-03-03T18:06:56.772Z,40.47
2023-03-03T18:09:42.039Z,39.10
2023-03-03T18:12:26.857Z,39.13
2023-03-03T18:15:23.444Z,33.03
2023-03-03T18:18:03.680Z,32.57
2023-03-03T18:20:52.340Z,36.07
2023-03-03T18:23:41.583Z,37.27
2023-03-03T18:26:32.858Z,35.17
2023-03-03T18:29:11.483Z,44.83
2023-03-03T18:32:00.171Z,47.13
2023-03-03T18:34:26.862Z,42.27
2023-03-03T18:37:31.811Z,90.60
2023-03-03T18:40:04.579Z,54.90
2023-03-03T18:42:38.077Z,42.03
2023-03-03T18:45:31.222Z,38.50
2023-03-03T18:48:06.789Z,36.00
2023-03-03T18:50:35.806Z,35.13
2023-03-03T18:53:34.241Z,37.93
2023-03-03T18:56:02.843Z,34.47
2023-03-03T18:58:37.555Z,34.07
2023-03-03T19:01:44.466Z,36.90
2023-03-03T19:04:16.233Z,35.17
2023-03-03T19:06:43.107Z,37.93
2023-03-03T19:09:17.592Z,36.63
2023-03-03T19:11:51.088Z,35.63
2023-03-03T19:14:30.837Z,35.37
2023-03-03T19:17:18.910Z,38.20
2023-03-03T19:20:07.689Z,40.33
2023-03-03T19:22:48.048Z,39.67
2023-03-03T19:25:22.434Z,37.00
2023-03-03T19:28:15.207Z,40.43
2023-03-03T19:30:58.579Z,36.43
2023-03-03T19:33:50.902Z,34.90
2023-03-03T19:36:22.375Z,31.93
2023-03-03T19:39:17.117Z,33.47
2023-03-03T19:41:57.052Z,31.17
2023-03-03T19:44:35.786Z,29.07
2023-03-03T19:47:09.074Z,27.97
2023-03-03T19:50:07.701Z,27.30
2023-03-03T19:52:49.476Z,25.10
2023-03-03T19:55:16.182Z,24.23
2023-03-03T19:58:01.359Z,23.40
2023-03-03T20:00:41.993Z,27.70
2023-03-03T20:03:30.574Z,23.77
2023-03-03T20:06:24.999Z,26.67
2023-03-03T20:08:51.659Z,25.60
2023-03-03T20:11:48.389Z,25.33
2023-03-03T20:14:21.196Z,23.43
2023-03-03T20:16:50.389Z,25.47
2023-03-03T20:19:43.812Z,26.10
2023-03-03T20:22:34.386Z,21.20
2023-03-03T20:25:15.515Z,21.40
2023-03-03T20:28:14.428Z,22.03
2023-03-03T20:30:41.113Z,25.57
2023-03-03T20:33:19.827Z,23.67
2023-03-03T20:35:58.517Z,25.67
2023-03-03T20:38:44.604Z,22.83
2023-03-03T20:41:23.073Z,26.33
2023-03-03T20:44:19.751Z,24.33
2023-03-03T20:47:18.260Z,25.03
2023-03-03T20:50:15.572Z,29.83
2023-03-03T20:52:48.599Z,23.60
2023-03-03T20:55:27.555Z,20.23
2023-03-03T20:58:11.253Z,22.90
2023-03-03T21:00:49.787Z,27.47
2023-03-03T21:03:29.194Z,26.53
2023-03-03T21:06:04.080Z,24.90
2023-03-03T21:08:57.603Z,21.60
2023-03-03T21:11:41.620Z,22.23
2023-03-03T21:14:37.878Z,23.57
2023-03-03T21:17:24.966Z,21.13
2023-03-03T21:19:51.683Z,24.07
2023-03-03T21:22:18.372Z,25.10
2023-03-03T21:25:00.913Z,23.90
2023-03-03T21:27:33.063Z,22.90
2023-03-03T21:30:02.918Z,23.77
2023-03-03T21:32:48.139Z,21.20
2023-03-03T21:35:21.913Z,20.47
2023-03-03T21:37:55.671Z,20.47
2023-03-03T21:40:30.207Z,22.80
2023-03-03T21:43:04.449Z,23.30
2023-03-03T21:45:31.326Z,25.17
2023-03-03T21:48:00.596Z,23.10
2023-03-03T21:50:32.205Z,22.97
2023-03-03T21:52:58.849Z,24.57
2023-03-03T21:55:26.767Z,23.90
2023-03-03T21:57:53.588Z,22.10
2023-03-03T22:00:20.688Z,24.20
2023-03-03T22:02:47.399Z,24.43
2023-03-03T22:05:14.161Z,22.73
2023-03-03T22:07:40.808Z,23.57
2023-03-03T22:10:09.830Z,23.30
2023-03-03T22:12:36.655Z,24.90
2023-03-03T22:15:03.541Z,22.97
2023-03-03T22:17:30.365Z,27.90
2023-03-03T22:19:57.112Z,21.10
2023-03-03T22:22:24.488Z,24.27
2023-03-03T22:24:51.218Z,24.00
2023-03-03T22:27:17.918Z,20.90
2023-03-03T22:29:44.650Z,22.50
2023-03-03T22:32:11.460Z,22.50
2023-03-03T22:34:38.324Z,22.77
2023-03-03T22:37:05.158Z,24.20
2023-03-03T22:39:31.843Z,26.40
2023-03-03T22:41:58.612Z,24.80
2023-03-03T22:44:25.472Z,25.40
2023-03-03T22:46:52.247Z,25.30
2023-03-03T22:49:18.966Z,25.13
2023-03-03T22:51:45.751Z,22.63
2023-03-03T22:54:12.574Z,23.17
2023-03-03T22:56:39.394Z,23.47
2023-03-03T22:59:06.148Z,22.43
2023-03-03T23:01:32.918Z,21.67
2023-03-03T23:04:02.729Z,25.87
2023-03-03T23:06:29.446Z,24.60
2023-03-03T23:08:56.122Z,24.40
2023-03-03T23:11:24.681Z,23.40
2023-03-03T23:13:51.492Z,24.67
2023-03-03T23:16:18.347Z,24.07
2023-03-03T23:18:45.114Z,23.43
2023-03-03T23:21:12.228Z,23.07
2023-03-03T23:23:38.920Z,23.17
2023-03-03T23:26:05.692Z,21.03
2023-03-03T23:28:32.481Z,27.13
2023-03-03T23:30:59.233Z,22.93
2023-03-03T23:33:25.986Z,21.90
2023-03-03T23:35:52.911Z,22.80
2023-03-03T23:38:19.680Z,20.80
2023-03-03T23:40:49.241Z,22.73
2023-03-03T23:43:16.245Z,23.17
2023-03-03T23:45:43.193Z,22.00
2023-03-03T23:48:10.549Z,23.33
2023-03-03T23:50:38.037Z,25.63
2023-03-03T23:53:06.406Z,21.97
2023-03-03T23:55:33.421Z,21.37
2023-03-03T23:58:00.122Z,24.00
